KASD

Slidell Airport

Slidell, Louisiana, USA
METAR KASD 202153Z AUTO 35003KT 10SM BKN075 OVC100 24/22 A3002 RMK AO2 RAB02E24 SLP164 P0001 T02440222
Observed Flight Rules
Oct-20 @ 21:53 UTC (25 minutes ago) Visual Flight Rules
Wind Visibility Clouds
350° at 3 knots 10 miles
  • Broken at 7,500' AGL
  • Overcast at 10,000' AGL
Temperatures Readings Precipitation
Current 24°C / 75°F
Dewpoint 22°C / 72°F
Humidity 89%
Altimeter 30.02" Hg
Pressure 1016.4 hPa
Elevation 9
Current Rain 0.01
METAR KASD 202153Z AUTO 35003KT 10SM BKN075 OVC100 24/22 A3002 RMK AO2 RAB02E24 SLP164 P0001 T02440222
Observed Flight Rules
Oct-20 @ 21:53 UTC
(25 minutes ago)
VFR
Wind Visibility
350° at 3 knots 10 miles
Clouds
  • Broken at 7,500' AGL
  • Overcast at 10,000' AGL
Temperature Dewpoint
24°C / 75°F 22°C / 72°F
Humidity Altimeter Pressure
89% 30.02" Hg 1016.4 hPa
Current Rain
0.01